createdAt,value
2019-04-06T00:00:44.331Z,97535.60
2019-04-06T00:03:13.362Z,97533.01
2019-04-06T00:05:41.644Z,97527.29
2019-04-06T00:08:09.899Z,97538.35
2019-04-06T00:10:38.179Z,97532.67
2019-04-06T00:13:06.466Z,97530.87
2019-04-06T00:15:34.757Z,97524.50
2019-04-06T00:18:02.979Z,97526.88
2019-04-06T00:20:31.826Z,97527.84
2019-04-06T00:23:00.087Z,97528.58
2019-04-06T00:25:29.140Z,97526.41
2019-04-06T00:27:57.394Z,97528.26
2019-04-06T00:30:25.749Z,97529.39
2019-04-06T00:32:55.647Z,97526.64
2019-04-06T00:35:24.504Z,97522.77
2019-04-06T00:37:52.764Z,97526.50
2019-04-06T00:40:21.042Z,97530.45
2019-04-06T00:42:49.298Z,97532.30
2019-04-06T00:45:17.574Z,97522.91
2019-04-06T00:47:45.832Z,97524.53
2019-04-06T00:50:14.683Z,97529.47
2019-04-06T00:52:42.939Z,97536.12
2019-04-06T00:55:11.222Z,97530.36
2019-04-06T00:57:39.484Z,97530.95
2019-04-06T01:00:07.767Z,97529.93
2019-04-06T01:02:36.026Z,97525.94
2019-04-06T01:05:05.917Z,97530.87
2019-04-06T01:07:34.175Z,97528.81
2019-04-06T01:10:02.471Z,97523.28
2019-04-06T01:12:32.077Z,97525.80
2019-04-06T01:15:00.364Z,97527.47
2019-04-06T01:17:28.983Z,97524.91
2019-04-06T01:19:57.268Z,97523.89
2019-04-06T01:22:25.528Z,97523.98
2019-04-06T01:24:53.811Z,97529.84
2019-04-06T01:27:22.066Z,97533.56
2019-04-06T01:29:50.327Z,97530.39
2019-04-06T01:32:18.615Z,97521.60
2019-04-06T01:34:46.870Z,97525.33
2019-04-06T01:37:15.154Z,97523.61
2019-04-06T01:39:43.419Z,97526.77
2019-04-06T01:42:11.703Z,97519.20
2019-04-06T01:44:39.967Z,97521.61
2019-04-06T01:47:08.256Z,97514.77
2019-04-06T01:49:36.522Z,97514.54
2019-04-06T01:52:04.807Z,97505.52
2019-04-06T01:54:33.068Z,97504.17
2019-04-06T01:57:01.347Z,97507.88
2019-04-06T01:59:29.611Z,97511.11
2019-04-06T02:02:01.977Z,97518.91
2019-04-06T02:04:30.903Z,97520.12
2019-04-06T02:06:59.255Z,97510.88
2019-04-06T02:09:27.520Z,97512.39
2019-04-06T02:11:56.568Z,97512.30
2019-04-06T02:14:24.829Z,97518.44
2019-04-06T02:16:53.110Z,97508.67
2019-04-06T02:19:21.371Z,97512.07
2019-04-06T02:21:49.655Z,97509.70
2019-04-06T02:24:18.507Z,97514.81
2019-04-06T02:26:47.555Z,97514.30
2019-04-06T02:29:16.098Z,97511.38
2019-04-06T02:31:48.462Z,97510.17
2019-04-06T02:34:27.124Z,97515.23
2019-04-06T02:36:57.033Z,97512.27
2019-04-06T02:39:43.740Z,97510.41
2019-04-06T02:42:14.202Z,97505.66
2019-04-06T02:44:42.460Z,97512.78
2019-04-06T02:47:10.801Z,97513.29
2019-04-06T02:49:39.011Z,97508.64
2019-04-06T02:52:07.294Z,97508.13
2019-04-06T02:54:36.532Z,97507.23
2019-04-06T02:57:04.823Z,97503.89
2019-04-06T02:59:33.077Z,97500.08
2019-04-06T03:02:01.487Z,97499.15
2019-04-06T03:04:29.805Z,97502.35
2019-04-06T03:06:58.065Z,97504.83
2019-04-06T03:09:26.898Z,97504.12
2019-04-06T03:11:55.170Z,97508.17
2019-04-06T03:14:23.446Z,97504.22
2019-04-06T03:16:51.718Z,97506.17
2019-04-06T03:19:19.974Z,97509.99
2019-04-06T03:21:48.263Z,97514.77
2019-04-06T03:24:17.176Z,97511.47
2019-04-06T03:26:59.424Z,97512.82
2019-04-06T03:29:15.432Z,97505.15
2019-04-06T03:31:44.884Z,97503.70
2019-04-06T03:34:13.324Z,97504.03
2019-04-06T03:36:41.609Z,97505.89
2019-04-06T03:39:09.868Z,97507.84
2019-04-06T03:41:38.226Z,97512.22
2019-04-06T03:44:07.187Z,97507.62
2019-04-06T03:46:35.515Z,97513.74
2019-04-06T03:49:03.728Z,97514.27
2019-04-06T03:51:32.017Z,97511.19
2019-04-06T03:54:00.839Z,97514.48
2019-04-06T03:56:29.131Z,97518.86
2019-04-06T04:01:29.779Z,97513.89
2019-04-06T04:03:58.034Z,97511.57
2019-04-06T04:06:26.295Z,97507.00
2019-04-06T04:08:54.589Z,97505.84
2019-04-06T04:11:22.847Z,97509.42
2019-04-06T04:13:51.133Z,97508.27
2019-04-06T04:16:19.960Z,97513.66
2019-04-06T04:18:48.239Z,97503.47
2019-04-06T04:21:16.500Z,97492.69
2019-04-06T04:23:44.780Z,97504.59
2019-04-06T04:26:13.039Z,97510.13
2019-04-06T04:28:41.652Z,97502.40
2019-04-06T04:31:09.907Z,97508.50
2019-04-06T04:33:38.188Z,97509.98
2019-04-06T04:36:06.452Z,97517.32
2019-04-06T04:38:34.865Z,97513.66
2019-04-06T04:41:03.277Z,97508.67
2019-04-06T04:43:33.487Z,97510.95
2019-04-06T04:46:01.744Z,97518.21
2019-04-06T04:48:30.121Z,97516.67
2019-04-06T04:50:58.362Z,97527.14
2019-04-06T04:53:26.651Z,97520.81
2019-04-06T04:55:54.907Z,97527.23
2019-04-06T04:58:23.402Z,97532.70
2019-04-06T05:00:51.728Z,97529.83
2019-04-06T05:03:20.174Z,97527.63
2019-04-06T05:05:48.450Z,97536.06
2019-04-06T05:08:16.734Z,97528.81
2019-04-06T05:10:44.995Z,97538.02
2019-04-06T05:13:13.491Z,97539.95
2019-04-06T05:16:04.594Z,97538.28
2019-04-06T05:18:32.881Z,97540.89
2019-04-06T05:21:01.138Z,97538.16
2019-04-06T05:23:29.424Z,97535.23
2019-04-06T05:25:58.257Z,97541.36
2019-04-06T05:28:26.539Z,97534.29
2019-04-06T05:30:54.802Z,97529.98
2019-04-06T05:33:23.091Z,97530.31
2019-04-06T05:35:51.352Z,97533.89
2019-04-06T05:38:19.760Z,97536.27
2019-04-06T05:40:47.980Z,97537.14
2019-04-06T05:43:16.332Z,97535.57
2019-04-06T05:45:44.743Z,97542.54
2019-04-06T05:48:13.028Z,97544.13
2019-04-06T05:50:42.727Z,97542.59
2019-04-06T05:53:11.100Z,97546.13
2019-04-06T05:55:39.338Z,97552.68
2019-04-06T05:58:10.662Z,97550.45
2019-04-06T06:00:40.130Z,97552.50
2019-04-06T06:03:08.575Z,97561.39
2019-04-06T06:05:40.235Z,97564.09
2019-04-06T06:08:07.820Z,97564.09
2019-04-06T06:10:38.312Z,97566.78
2019-04-06T06:13:06.597Z,97566.59
2019-04-06T06:15:34.976Z,97569.95
2019-04-06T06:18:03.213Z,97561.23
2019-04-06T06:20:32.363Z,97568.31
2019-04-06T06:23:00.602Z,97566.73
2019-04-06T06:25:29.636Z,97571.11
2019-04-06T06:27:58.082Z,97568.83
2019-04-06T06:30:27.158Z,97575.39
2019-04-06T06:32:55.585Z,97568.03
2019-04-06T06:35:23.908Z,97569.80
2019-04-06T06:37:52.791Z,97563.28
2019-04-06T06:40:21.053Z,97559.68
2019-04-06T06:42:49.466Z,97568.10
2019-04-06T06:45:17.695Z,97572.21
2019-04-06T06:47:45.965Z,97565.78
2019-04-06T06:50:14.225Z,97559.23
2019-04-06T06:52:43.372Z,97555.63
2019-04-06T06:55:11.816Z,97559.71
2019-04-06T06:57:40.109Z,97559.91
2019-04-06T07:00:09.504Z,97559.07
2019-04-06T07:02:37.789Z,97559.68
2019-04-06T07:05:06.625Z,97559.39
2019-04-06T07:07:34.915Z,97561.19
2019-04-06T07:10:05.732Z,97558.29
2019-04-06T07:12:33.032Z,97558.20
2019-04-06T07:15:01.306Z,97562.59
2019-04-06T07:17:29.566Z,97559.39
2019-04-06T07:19:57.859Z,97554.59
2019-04-06T07:22:26.291Z,97560.42
2019-04-06T07:24:54.576Z,97556.59
2019-04-06T07:27:22.835Z,97567.20
2019-04-06T07:29:51.252Z,97568.97
2019-04-06T07:32:19.527Z,97568.69
2019-04-06T07:34:47.809Z,97573.55
2019-04-06T07:37:16.066Z,97569.61
2019-04-06T07:39:44.351Z,97571.88
2019-04-06T07:42:12.626Z,97569.09
2019-04-06T07:44:40.919Z,97571.88
2019-04-06T07:47:09.175Z,97564.20
2019-04-06T07:49:37.460Z,97569.92
2019-04-06T07:52:05.932Z,97568.99
2019-04-06T07:54:34.192Z,97563.31
2019-04-06T07:57:02.517Z,97567.89
2019-04-06T07:59:30.807Z,97565.48
2019-04-06T08:01:59.067Z,97574.95
2019-04-06T08:04:27.427Z,97565.88
2019-04-06T08:06:55.812Z,97558.80
2019-04-06T08:09:24.820Z,97563.97
2019-04-06T08:11:53.287Z,97558.94
2019-04-06T08:14:21.538Z,97560.81
2019-04-06T08:16:49.846Z,97560.80
2019-04-06T08:19:18.075Z,97575.36
2019-04-06T08:21:46.329Z,97572.72
2019-04-06T08:24:15.284Z,97573.76
2019-04-06T08:26:46.026Z,97568.66
2019-04-06T08:29:13.566Z,97570.33
2019-04-06T08:31:42.098Z,97570.92
2019-04-06T08:34:10.351Z,97562.81
2019-04-06T08:36:38.643Z,97568.58
2019-04-06T08:39:08.258Z,97569.14
2019-04-06T08:41:36.565Z,97565.23
2019-04-06T08:44:04.852Z,97568.81
2019-04-06T08:46:33.136Z,97566.03
2019-04-06T08:49:01.397Z,97564.92
2019-04-06T08:51:29.758Z,97562.36
2019-04-06T08:53:58.024Z,97567.04
2019-04-06T08:56:27.704Z,97569.44
2019-04-06T08:58:55.907Z,97563.38
2019-04-06T09:01:24.186Z,97568.05
2019-04-06T09:03:52.516Z,97571.00
2019-04-06T09:06:21.159Z,97572.94
2019-04-06T09:08:50.089Z,97566.75
2019-04-06T09:11:18.489Z,97571.30
2019-04-06T09:13:47.380Z,97562.87
2019-04-06T09:16:15.669Z,97566.45
2019-04-06T09:18:43.929Z,97565.52
2019-04-06T09:21:12.214Z,97559.88
2019-04-06T09:23:40.473Z,97564.67
2019-04-06T09:26:08.755Z,97568.54
2019-04-06T09:28:37.025Z,97563.74
2019-04-06T09:31:05.364Z,97568.09
2019-04-06T09:33:33.643Z,97566.83
2019-04-06T09:36:02.686Z,97567.63
2019-04-06T09:38:30.935Z,97568.66
2019-04-06T09:40:59.448Z,97570.51
2019-04-06T09:43:27.800Z,97565.93
2019-04-06T09:46:14.723Z,97572.66
2019-04-06T09:49:00.695Z,97562.48
2019-04-06T09:51:39.607Z,97563.09
2019-04-06T09:54:09.512Z,97567.02
2019-04-06T09:56:55.927Z,97561.09
2019-04-06T09:59:35.303Z,97564.85
2019-04-06T10:02:02.636Z,97565.81
2019-04-06T10:04:32.537Z,97565.29
2019-04-06T10:07:03.234Z,97566.56
2019-04-06T10:09:50.893Z,97567.77
2019-04-06T10:12:20.991Z,97570.05
2019-04-06T10:15:09.983Z,97560.45
2019-04-06T10:17:40.481Z,97558.61
2019-04-06T10:20:22.849Z,97551.42
2019-04-06T10:23:09.220Z,97552.12
2019-04-06T10:25:41.550Z,97551.02
2019-04-06T10:28:11.476Z,97556.13
2019-04-06T10:30:41.380Z,97551.02
2019-04-06T10:33:23.523Z,97551.30
2019-04-06T10:35:56.079Z,97549.00
2019-04-06T10:38:26.067Z,97547.38
2019-04-06T10:41:02.413Z,97543.11
2019-04-06T10:43:41.439Z,97546.20
2019-04-06T10:46:20.369Z,97544.35
2019-04-06T10:48:50.868Z,97544.28
2019-04-06T10:51:23.170Z,97547.18
2019-04-06T10:54:06.168Z,97544.75
2019-04-06T10:56:39.259Z,97540.53
2019-04-06T10:59:09.215Z,97546.24
2019-04-06T11:01:39.087Z,97550.16
2019-04-06T11:04:12.199Z,97545.35
2019-04-06T11:06:44.765Z,97540.33
2019-04-06T11:09:30.835Z,97547.37
2019-04-06T11:12:03.428Z,97547.22
2019-04-06T11:14:48.447Z,97543.78
2019-04-06T11:17:35.223Z,97543.89
2019-04-06T11:20:09.707Z,97535.05
2019-04-06T11:22:51.831Z,97541.23
2019-04-06T11:25:37.077Z,97541.34
2019-04-06T11:28:06.979Z,97534.01
2019-04-06T11:30:54.638Z,97539.81
2019-04-06T11:33:24.537Z,97527.91
2019-04-06T11:36:03.730Z,97531.07
2019-04-06T11:38:52.071Z,97525.30
2019-04-06T11:41:24.817Z,97531.98
2019-04-06T11:44:11.255Z,97526.89
2019-04-06T11:46:49.876Z,97524.28
2019-04-06T11:49:32.801Z,97519.66
2019-04-06T11:52:02.969Z,97521.86
2019-04-06T11:54:38.600Z,97520.23
2019-04-06T11:57:14.509Z,97523.49
2019-04-06T11:59:46.896Z,97527.94
2019-04-06T12:02:26.568Z,97524.65
2019-04-06T12:05:11.214Z,97517.84
2019-04-06T12:07:42.145Z,97512.32
2019-04-06T12:10:12.090Z,97515.34
2019-04-06T12:12:57.416Z,97512.84
2019-04-06T12:15:33.657Z,97507.64
2019-04-06T12:18:17.906Z,97510.96
2019-04-06T12:21:02.904Z,97509.30
2019-04-06T12:23:34.402Z,97506.26
2019-04-06T12:26:22.362Z,97498.26
2019-04-06T12:28:55.231Z,97497.98
2019-04-06T12:31:25.157Z,97494.44
2019-04-06T12:34:01.173Z,97488.94
2019-04-06T12:36:33.842Z,97491.41
2019-04-06T12:39:06.186Z,97486.50
2019-04-06T12:41:51.155Z,97486.21
2019-04-06T12:44:24.478Z,97485.48
2019-04-06T12:46:54.402Z,97485.48
2019-04-06T12:49:24.879Z,97484.09
2019-04-06T12:52:07.084Z,97485.75
2019-04-06T12:54:52.033Z,97493.00
2019-04-06T12:57:31.001Z,97485.03
2019-04-06T13:00:07.392Z,97485.03
2019-04-06T13:02:40.264Z,97481.48
2019-04-06T13:05:13.596Z,97474.31
2019-04-06T13:07:46.688Z,97475.67
2019-04-06T13:10:19.044Z,97464.05
2019-04-06T13:12:57.838Z,97475.45
2019-04-06T13:15:36.574Z,97475.45
2019-04-06T13:18:09.449Z,97470.34
2019-04-06T13:20:48.641Z,97454.74
2019-04-06T13:23:27.460Z,97454.74
2019-04-06T13:25:57.470Z,97463.52
2019-04-06T13:28:33.427Z,97465.77
2019-04-06T13:31:18.291Z,97451.98
2019-04-06T13:33:54.632Z,97458.84
2019-04-06T13:36:24.827Z,97454.25
2019-04-06T13:38:54.452Z,97454.47
2019-04-06T13:41:27.076Z,97452.17
2019-04-06T13:43:56.998Z,97451.39
2019-04-06T13:46:27.670Z,97451.61
2019-04-06T13:49:04.530Z,97445.72
2019-04-06T13:51:54.089Z,97445.72
2019-04-06T13:54:39.349Z,97440.40
2019-04-06T13:57:12.616Z,97443.89
2019-04-06T13:59:54.372Z,97438.42
2019-04-06T14:02:30.275Z,97434.62
2019-04-06T14:05:00.622Z,97443.38
2019-04-06T14:07:45.945Z,97445.83
2019-04-06T14:10:19.007Z,97446.23
2019-04-06T14:12:49.755Z,97445.25
2019-04-06T14:15:19.920Z,97441.07
2019-04-06T14:18:07.806Z,97440.87
2019-04-06T14:20:37.772Z,97441.30
2019-04-06T14:23:23.857Z,97443.70
2019-04-06T14:26:06.774Z,97440.94
2019-04-06T14:28:39.644Z,97438.93
2019-04-06T14:31:09.781Z,97442.28
2019-04-06T14:33:48.536Z,97435.25
2019-04-06T14:36:24.286Z,97451.27
2019-04-06T14:38:54.208Z,97443.75
2019-04-06T14:41:26.821Z,97441.73
2019-04-06T14:44:00.332Z,97439.56
2019-04-06T14:46:30.228Z,97446.69
2019-04-06T14:49:28.496Z,97440.06
2019-04-06T14:51:51.072Z,97440.06
2019-04-06T14:54:21.433Z,97429.62
2019-04-06T14:56:57.168Z,97442.58
2019-04-06T14:59:43.728Z,97442.90
2019-04-06T15:02:19.624Z,97446.23
2019-04-06T15:05:01.277Z,97448.01
2019-04-06T15:07:36.960Z,97448.01
2019-04-06T15:10:19.871Z,97447.45
2019-04-06T15:13:02.031Z,97444.67
2019-04-06T15:15:37.693Z,97449.10
2019-04-06T15:18:14.168Z,97443.86
2019-04-06T15:20:44.042Z,97446.87
2019-04-06T15:23:17.049Z,97447.16
2019-04-06T15:26:01.692Z,97443.58
2019-04-06T15:28:34.251Z,97446.88
2019-04-06T15:31:07.718Z,97445.48
2019-04-06T15:33:40.092Z,97449.56
2019-04-06T15:36:25.320Z,97450.02
2019-04-06T15:39:11.424Z,97453.00
2019-04-06T15:41:57.523Z,97452.64
2019-04-06T15:44:30.827Z,97455.31
2019-04-06T15:47:17.228Z,97447.86
2019-04-06T15:49:58.910Z,97442.90
2019-04-06T15:52:37.835Z,97438.47
2019-04-06T15:55:11.232Z,97435.98
2019-04-06T15:57:47.422Z,97442.02
2019-04-06T16:00:19.831Z,97435.89
2019-04-06T16:02:51.435Z,97440.83
2019-04-06T16:05:24.834Z,97441.59
2019-04-06T16:07:58.223Z,97444.05
2019-04-06T16:10:37.666Z,97436.62
2019-04-06T16:13:07.597Z,97433.16
2019-04-06T16:15:37.556Z,97433.37
2019-04-06T16:18:10.383Z,97435.03
2019-04-06T16:20:42.967Z,97433.02
2019-04-06T16:23:13.636Z,97432.45
2019-04-06T16:25:52.482Z,97435.98
2019-04-06T16:28:22.380Z,97432.30
2019-04-06T16:30:57.748Z,97436.95
2019-04-06T16:33:36.062Z,97428.23
2019-04-06T16:36:09.815Z,97433.63
2019-04-06T16:38:42.907Z,97431.97
2019-04-06T16:41:18.851Z,97437.98
2019-04-06T16:43:54.929Z,97427.83
2019-04-06T16:46:41.739Z,97429.98
2019-04-06T16:49:23.957Z,97427.28
2019-04-06T16:51:54.198Z,97424.21
2019-04-06T16:54:24.584Z,97429.94
2019-04-06T16:56:57.097Z,97426.62
2019-04-06T16:59:29.987Z,97425.75
2019-04-06T17:02:24.342Z,97424.41
2019-04-06T17:05:04.952Z,97418.56
2019-04-06T17:07:37.824Z,97416.27
2019-04-06T17:10:23.058Z,97418.97
2019-04-06T17:13:08.959Z,97420.62
2019-04-06T17:15:38.881Z,97422.14
2019-04-06T17:18:09.256Z,97418.61
2019-04-06T17:20:39.179Z,97421.18
2019-04-06T17:23:09.539Z,97417.44
2019-04-06T17:25:51.929Z,97417.61
2019-04-06T17:28:38.323Z,97410.60
2019-04-06T17:31:17.395Z,97422.49
2019-04-06T17:33:56.250Z,97421.34
2019-04-06T17:36:43.086Z,97416.98
2019-04-06T17:39:31.347Z,97428.97
2019-04-06T17:42:16.843Z,97420.34
2019-04-06T17:44:52.438Z,97420.66
2019-04-06T17:47:38.482Z,97427.55
2019-04-06T17:50:24.676Z,97421.11
2019-04-06T17:52:55.478Z,97430.99
2019-04-06T17:55:40.327Z,97431.22
2019-04-06T17:58:10.756Z,97440.23
2019-04-06T18:00:40.757Z,97437.30
2019-04-06T18:03:26.362Z,97434.16
2019-04-06T18:06:12.631Z,97442.36
2019-04-06T18:08:49.012Z,97439.63
2019-04-06T18:11:19.335Z,97438.38
2019-04-06T18:13:48.683Z,97436.94
2019-04-06T18:16:18.596Z,97446.35
2019-04-06T18:18:47.395Z,97443.52
2019-04-06T18:21:16.458Z,97439.23
2019-04-06T18:23:44.870Z,97436.67
2019-04-06T18:26:13.123Z,97444.86
2019-04-06T18:28:41.784Z,97442.25
2019-04-06T18:31:28.534Z,97450.43
2019-04-06T18:33:57.286Z,97448.06
2019-04-06T18:36:27.632Z,97445.70
2019-04-06T18:38:57.139Z,97444.88
2019-04-06T18:41:26.192Z,97445.08
2019-04-06T18:43:54.668Z,97446.91
2019-04-06T18:46:22.910Z,97452.25
2019-04-06T18:48:51.205Z,97457.92
2019-04-06T18:51:20.695Z,97454.44
2019-04-06T18:53:49.066Z,97458.00
2019-04-06T18:56:17.327Z,97448.69
2019-04-06T18:58:46.180Z,97454.22
2019-04-06T19:01:14.595Z,97459.25
2019-04-06T19:03:43.373Z,97454.11
2019-04-06T19:06:12.398Z,97455.70
2019-04-06T19:08:40.843Z,97447.47
2019-04-06T19:11:09.761Z,97459.24
2019-04-06T19:13:39.003Z,97457.00
2019-04-06T19:16:07.380Z,97449.64
2019-04-06T19:18:36.250Z,97451.27
2019-04-06T19:21:04.734Z,97455.47
2019-04-06T19:23:34.384Z,97455.19
2019-04-06T19:26:03.007Z,97461.27
2019-04-06T19:28:32.284Z,97452.09
2019-04-06T19:31:00.934Z,97454.78
2019-04-06T19:33:29.420Z,97455.52
2019-04-06T19:35:57.639Z,97454.64
2019-04-06T19:38:25.926Z,97453.52
2019-04-06T19:40:54.204Z,97453.38
2019-04-06T19:43:22.936Z,97450.09
2019-04-06T19:45:51.337Z,97455.02
2019-04-06T19:48:20.006Z,97460.54
2019-04-06T19:50:48.829Z,97456.27
2019-04-06T19:53:17.731Z,97452.97
2019-04-06T19:55:46.103Z,97456.27
2019-04-06T19:58:15.218Z,97451.72
2019-04-06T20:00:44.067Z,97449.80
2019-04-06T20:03:12.483Z,97453.47
2019-04-06T20:05:41.146Z,97441.55
2019-04-06T20:08:09.828Z,97444.92
2019-04-06T20:10:38.591Z,97447.12
2019-04-06T20:13:07.351Z,97444.70
2019-04-06T20:15:35.565Z,97445.68
2019-04-06T20:18:03.849Z,97442.30
2019-04-06T20:20:32.111Z,97440.95
2019-04-06T20:23:00.512Z,97437.16
2019-04-06T20:25:28.730Z,97440.11
2019-04-06T20:27:57.617Z,97437.28
2019-04-06T20:30:25.839Z,97433.95
2019-04-06T20:32:54.102Z,97432.03
2019-04-06T20:35:23.417Z,97429.76
2019-04-06T20:37:52.713Z,97428.70
2019-04-06T20:40:21.062Z,97432.02
2019-04-06T20:42:49.996Z,97425.98
2019-04-06T20:45:18.285Z,97424.20
2019-04-06T20:47:46.549Z,97427.64
2019-04-06T20:50:14.832Z,97432.63
2019-04-06T20:52:43.097Z,97428.06
2019-04-06T20:55:12.420Z,97425.11
2019-04-06T20:57:41.754Z,97428.77
2019-04-06T21:00:10.040Z,97424.39
2019-04-06T21:02:38.303Z,97427.23
2019-04-06T21:05:07.218Z,97432.22
2019-04-06T21:07:36.043Z,97429.80
2019-04-06T21:10:06.563Z,97424.30
2019-04-06T21:12:35.207Z,97425.42
2019-04-06T21:15:16.034Z,97426.77
2019-04-06T21:17:34.308Z,97429.82
2019-04-06T21:20:02.746Z,97423.97
2019-04-06T21:22:31.067Z,97424.23
2019-04-06T21:24:59.406Z,97429.20
2019-04-06T21:27:28.743Z,97424.52
2019-04-06T21:29:57.171Z,97422.99
2019-04-06T21:32:26.057Z,97428.80
2019-04-06T21:34:54.834Z,97424.50
2019-04-06T21:37:23.135Z,97424.87
2019-04-06T21:39:52.217Z,97424.65
2019-04-06T21:42:20.931Z,97431.34
2019-04-06T21:44:49.208Z,97426.77
2019-04-06T21:47:17.469Z,97427.42
2019-04-06T21:49:45.752Z,97422.27
2019-04-06T21:52:14.076Z,97426.63
2019-04-06T21:54:42.372Z,97428.20
2019-04-06T21:57:11.402Z,97430.84
2019-04-06T21:59:40.578Z,97429.11
2019-04-06T22:02:08.801Z,97431.67
2019-04-06T22:04:37.410Z,97432.97
2019-04-06T22:07:06.438Z,97425.03
2019-04-06T22:09:34.671Z,97433.75
2019-04-06T22:12:03.341Z,97434.00
2019-04-06T22:14:31.679Z,97429.10
2019-04-06T22:16:59.984Z,97427.09
2019-04-06T22:19:28.242Z,97431.08
2019-04-06T22:21:57.281Z,97429.10
2019-04-06T22:24:26.390Z,97418.15
2019-04-06T22:26:55.050Z,97418.58
2019-04-06T22:29:23.853Z,97426.59
2019-04-06T22:31:52.121Z,97430.91
2019-04-06T22:34:20.420Z,97423.14
2019-04-06T22:36:48.678Z,97428.31
2019-04-06T22:39:16.940Z,97428.22
2019-04-06T22:41:45.798Z,97424.76
2019-04-06T22:44:14.423Z,97426.47
2019-04-06T22:46:43.070Z,97423.75
2019-04-06T22:49:11.299Z,97423.84
2019-04-06T22:51:40.815Z,97422.31
2019-04-06T22:54:09.039Z,97418.05
2019-04-06T22:56:37.436Z,97414.72
2019-04-06T22:59:06.243Z,97415.45
2019-04-06T23:01:36.894Z,97413.23
2019-04-06T23:04:13.324Z,97413.09
2019-04-06T23:06:43.267Z,97416.11
2019-04-06T23:09:12.194Z,97416.63
2019-04-06T23:11:40.946Z,97417.53
2019-04-06T23:14:09.222Z,97414.81
2019-04-06T23:16:39.311Z,97414.34
2019-04-06T23:19:08.145Z,97410.34
2019-04-06T23:21:36.445Z,97414.72
2019-04-06T23:24:04.879Z,97419.08
2019-04-06T23:26:34.458Z,97416.52
2019-04-06T23:29:03.391Z,97418.67
2019-04-06T23:31:32.284Z,97422.31
2019-04-06T23:34:01.121Z,97422.95
2019-04-06T23:36:29.492Z,97415.83
2019-04-06T23:38:57.766Z,97417.85
2019-04-06T23:41:26.777Z,97416.00
2019-04-06T23:43:55.631Z,97417.69
2019-04-06T23:46:24.561Z,97418.27
2019-04-06T23:48:54.171Z,97421.58
2019-04-06T23:51:23.386Z,97422.05
2019-04-06T23:53:52.523Z,97417.67
2019-04-06T23:56:20.819Z,97421.57
2019-04-06T23:58:49.079Z,97422.02
